Dousman, WI

9:38 AM CST on November 24, 2014 (GMT -0600)
Watertown Municipal | Change Station
CLOSE
Current Station
Airport
Location: Watertown,
Elevation: 833 ft
Nearby Weather Stations
Active Advisory: Winter Weather Advisory

Elev 833 ft 43.17 °N, 88.72 °W | Updated 23 minutes ago

Fog
Fog
38 °F
Feels Like 30 °F
N
12
Wind Variable Wind from West

Today
High -- | Low -- °F
--% Chance of Precip.
Yesterday
High -- | Low -- °F
Precip. -- in
6:57 AM 4:23 PM
Waxing Crescent, 6% visible
Pressure 29.11 in
Visibility 2.5 miles
Clouds Overcast 700 ft
Windchill 30 °F
Dew Point 38 °F
Humidity 100%
Rainfall 0.02 in
Snow Depth Not available.
UV 0 out of 12
Pollen .10 out of 12
Air Quality Not available.
Flu Activity Not available.
METAR KRYV 241515Z AUTO 28010KT 2 1/2SM BR OVC007 03/03 A2911 RMK AO2 T00320032

More Conditions Fewer Conditions

Pressure 29.11 in
Visibility 2.5 miles
Clouds Overcast 700 ft
Windchill 30 °F
Dew Point 38 °F
Humidity 100%
Rainfall 0.02 in
Snow Depth Not available.
UV 0 out of 12
Pollen .10 out of 12
Air Quality Not available.
Flu Activity Not available.
METAR KRYV 241515Z AUTO 28010KT 2 1/2SM BR OVC007 03/03 A2911 RMK AO2 T00320032

More Conditions Fewer Conditions

10-Day Weather Forecast

Almanac

Astronomy

Nov. 24, 2014 Rise Set
Actual Time
Civil Twilight
Nautical Twilight
Astronomical Twilight
Moon
Length of Visible Light
Length of Day
Tomorrow will be .
, % of the Moon is Illuminated

Today's Extremes

State Highs State Lows

Community

WunderPhotos

Upload Photos

1,773,361 photos uploaded!

WunderBlogs® & News

Nearby

Air Quality

  Air Quality AQ Index Pollutant
Not available.

Snow Depth

Station Depth Elevation

Earthquake Activity

City Distance Mag. Time & Date
Minimum magnitude displayed is 2.5.

Coastal Water Temperatures

Place Temperature

Nearby Weather Stations